Time;durP1;ratioP1;P1;durP2;ratioP2;P2;SDS_P1;SDS_P2;PMS_P1;PMS_P2;Temp;Humidity;BMP_temperature;BMP_pressure;BME280_temperature;BME280_humidity;BME280_pressure;Samples;Min_cycle;Max_cycle;Signal;HPM_P1;HPM_P2
2022/04/06 00:03:00;;;;;;;11.83;10.07;;;8.00;99.90;;;;;;8449792;28;20200;-65
2022/04/06 00:07:00;;;;;;;12.43;10.27;;;8.00;99.90;;;;;;8437704;28;20392;-68
2022/04/06 00:11:02;;;;;;;12.53;10.40;;;8.00;99.90;;;;;;8450229;28;20615;-66
2022/04/06 00:15:06;;;;;;;11.30;10.00;;;8.00;99.90;;;;;;8448928;28;20204;-65
2022/04/06 00:19:06;;;;;;;13.53;10.77;;;8.10;99.90;;;;;;8430664;28;20208;-66
2022/04/06 00:23:08;;;;;;;14.70;10.70;;;8.10;99.90;;;;;;8424964;28;20312;-68
2022/04/06 00:27:09;;;;;;;11.10;9.80;;;8.10;99.90;;;;;;8436537;28;20214;-67
2022/04/06 00:31:12;;;;;;;12.67;10.60;;;8.10;99.90;;;;;;8448432;28;20227;-65
2022/04/06 00:35:28;;;;;;;13.77;10.83;;;8.10;99.90;;;;;;8444645;27;20200;-64
2022/04/06 00:39:29;;;;;;;11.90;10.13;;;8.10;99.90;;;;;;8453105;28;20298;-65
2022/04/06 00:43:30;;;;;;;13.87;11.53;;;8.10;99.90;;;;;;8430016;28;20211;-65
2022/04/06 00:47:30;;;;;;;14.10;11.10;;;8.10;99.90;;;;;;8427109;28;20235;-65
2022/04/06 00:51:33;;;;;;;14.07;11.63;;;8.10;99.90;;;;;;8427549;28;20253;-64
2022/04/06 00:55:37;;;;;;;14.17;10.53;;;8.10;99.90;;;;;;8435729;28;20203;-65
2022/04/06 00:59:38;;;;;;;14.00;11.77;;;8.10;99.90;;;;;;8428375;28;20215;-67
2022/04/06 01:03:40;;;;;;;16.53;12.63;;;8.10;99.90;;;;;;8430018;28;20255;-66
2022/04/06 01:07:45;;;;;;;14.97;12.40;;;8.10;99.90;;;;;;8438555;28;20211;-67
2022/04/06 01:11:49;;;;;;;15.43;12.00;;;8.10;99.90;;;;;;8438718;28;20307;-65
2022/04/06 01:15:50;;;;;;;15.90;12.63;;;8.10;99.90;;;;;;8448121;28;20212;-66
2022/04/06 01:19:53;;;;;;;13.33;10.70;;;8.10;99.90;;;;;;8449220;28;20280;-66
2022/04/06 01:23:54;;;;;;;13.83;11.43;;;8.10;99.90;;;;;;8443557;28;20207;-66
2022/04/06 01:27:55;;;;;;;13.53;10.43;;;8.10;99.90;;;;;;8451784;28;20215;-66
2022/04/06 01:32:06;;;;;;;13.07;10.47;;;8.10;99.90;;;;;;8435765;28;20214;-67
2022/04/06 01:36:07;;;;;;;12.27;9.10;;;8.10;99.90;;;;;;8459164;28;20290;-65
2022/04/06 01:40:08;;;;;;;12.43;9.73;;;8.10;99.90;;;;;;8434326;28;20241;-66
2022/04/06 01:44:09;;;;;;;11.10;9.47;;;8.10;99.90;;;;;;8435548;28;20211;-65
2022/04/06 01:48:10;;;;;;;11.57;9.57;;;8.10;99.90;;;;;;8435448;28;20288;-65
2022/04/06 01:52:13;;;;;;;10.30;8.10;;;8.10;99.90;;;;;;8434236;28;20208;-66
2022/04/06 01:56:14;;;;;;;11.17;9.27;;;8.10;99.90;;;;;;8434794;28;20215;-65
2022/04/06 02:00:17;;;;;;;13.40;8.80;;;8.10;99.90;;;;;;8451996;28;20227;-66
2022/04/06 02:04:18;;;;;;;9.60;7.80;;;8.10;99.90;;;;;;8441580;27;20211;-65
2022/04/06 02:08:19;;;;;;;9.40;7.90;;;8.10;99.90;;;;;;8433351;28;20275;-65
2022/04/06 02:12:23;;;;;;;11.67;7.20;;;8.10;99.90;;;;;;8434642;28;20204;-66
2022/04/06 02:16:24;;;;;;;6.90;6.13;;;8.20;99.90;;;;;;8434002;28;20204;-63
2022/04/06 02:20:25;;;;;;;8.63;6.87;;;8.20;99.90;;;;;;8434623;28;20374;-65
2022/04/06 02:24:25;;;;;;;7.33;6.07;;;8.20;99.90;;;;;;8433694;28;20203;-67
2022/04/06 02:28:26;;;;;;;8.57;7.10;;;8.20;99.90;;;;;;8432381;28;20281;-65
2022/04/06 02:32:27;;;;;;;8.73;6.67;;;8.20;99.90;;;;;;8447879;28;20207;-66
2022/04/06 02:36:28;;;;;;;6.97;5.37;;;8.20;99.90;;;;;;8457911;28;20588;-65
2022/04/06 02:40:32;;;;;;;8.17;6.20;;;8.30;99.90;;;;;;8452138;28;20479;-67
2022/04/06 02:44:33;;;;;;;8.90;7.43;;;8.40;99.90;;;;;;8433823;28;20199;-66
2022/04/06 02:48:34;;;;;;;9.63;7.90;;;8.40;99.90;;;;;;8452163;28;20223;-67
2022/04/06 02:52:35;;;;;;;11.43;8.20;;;8.40;99.90;;;;;;8433279;28;20215;-65
2022/04/06 02:56:36;;;;;;;12.03;9.67;;;8.40;99.90;;;;;;8431430;28;20305;-66
2022/04/06 03:00:36;;;;;;;13.83;10.83;;;8.30;99.90;;;;;;8451805;28;20526;-67
2022/04/06 03:04:37;;;;;;;12.33;9.83;;;8.30;99.90;;;;;;8450218;28;20205;-66
2022/04/06 03:08:38;;;;;;;13.57;10.73;;;8.20;99.90;;;;;;8451495;28;20306;-66
2022/04/06 03:12:39;;;;;;;13.33;10.17;;;8.30;99.90;;;;;;8433458;28;20199;-67
2022/04/06 03:16:40;;;;;;;14.77;11.50;;;8.20;99.90;;;;;;8452031;28;20192;-64
2022/04/06 03:20:41;;;;;;;16.97;12.57;;;8.20;99.90;;;;;;8450546;28;20204;-68
2022/04/06 03:24:41;;;;;;;15.97;12.97;;;8.20;99.90;;;;;;8450901;28;20211;-68
2022/04/06 03:28:42;;;;;;;16.10;12.60;;;8.20;99.90;;;;;;8431771;28;20254;-68
2022/04/06 03:32:43;;;;;;;15.53;11.83;;;8.20;99.90;;;;;;8449847;28;20199;-65
2022/04/06 03:36:47;;;;;;;16.17;11.83;;;8.20;99.90;;;;;;8438274;28;20199;-66
2022/04/06 03:40:48;;;;;;;15.93;12.50;;;8.20;99.90;;;;;;8431748;28;20195;-66
2022/04/06 03:44:49;;;;;;;16.30;12.40;;;8.20;99.90;;;;;;8431668;28;20241;-67
2022/04/06 03:48:50;;;;;;;16.93;12.90;;;8.10;99.90;;;;;;8430106;28;20219;-67
2022/04/06 03:52:51;;;;;;;14.53;11.63;;;8.20;99.90;;;;;;8449176;28;20299;-65
2022/04/06 03:56:52;;;;;;;18.40;12.60;;;8.20;99.90;;;;;;8431798;28;20218;-65
2022/04/06 04:00:52;;;;;;;15.63;12.30;;;8.20;99.90;;;;;;8431536;28;20203;-67
2022/04/06 04:04:53;;;;;;;12.70;10.37;;;8.10;99.90;;;;;;8457747;28;20207;-65
2022/04/06 04:08:54;;;;;;;14.93;12.10;;;8.10;99.90;;;;;;8431371;28;20211;-66
2022/04/06 04:12:55;;;;;;;14.13;11.63;;;8.10;99.90;;;;;;8451333;28;20204;-63
2022/04/06 04:16:56;;;;;;;12.97;10.17;;;8.10;99.90;;;;;;8430946;28;20231;-67
2022/04/06 04:25:16;;;;;;;13.47;10.43;;;8.10;99.90;;;;;;8448514;28;20194;-65
2022/04/06 04:29:17;;;;;;;13.97;10.73;;;8.10;99.90;;;;;;8424731;28;20219;-65
2022/04/06 04:33:18;;;;;;;13.23;10.17;;;8.20;99.90;;;;;;8432220;28;20302;-67
2022/04/06 04:37:19;;;;;;;13.23;10.17;;;8.20;99.90;;;;;;8447925;28;20210;-67
2022/04/06 04:41:22;;;;;;;12.17;10.00;;;8.20;99.90;;;;;;8450334;28;20737;-67
2022/04/06 04:45:23;;;;;;;13.20;9.80;;;8.30;99.90;;;;;;8431072;28;20217;-68
2022/04/06 04:49:23;;;;;;;13.63;11.03;;;8.30;99.90;;;;;;8430300;28;20223;-66
2022/04/06 04:53:25;;;;;;;14.87;12.03;;;8.30;99.90;;;;;;8448842;28;20299;-64
2022/04/06 04:57:26;;;;;;;13.00;11.17;;;8.30;99.90;;;;;;8429505;28;20595;-67
2022/04/06 05:01:26;;;;;;;14.53;12.03;;;8.40;99.90;;;;;;8432418;28;20237;-66
2022/04/06 05:05:27;;;;;;;14.07;11.33;;;8.40;99.90;;;;;;8463102;27;20374;-64
2022/04/06 05:09:28;;;;;;;13.50;11.33;;;8.40;99.90;;;;;;8437075;28;20226;-66
2022/04/06 05:13:29;;;;;;;13.97;12.17;;;8.50;99.90;;;;;;8454783;28;20195;-64
2022/04/06 05:17:30;;;;;;;16.00;12.47;;;8.50;99.90;;;;;;8435169;28;20215;-67
2022/04/06 05:21:31;;;;;;;15.93;12.07;;;8.50;99.90;;;;;;8436012;28;20216;-68
2022/04/06 05:25:32;;;;;;;14.27;11.50;;;8.50;99.90;;;;;;8453704;28;20283;-65
2022/04/06 05:29:34;;;;;;;15.13;12.33;;;8.60;99.90;;;;;;8436026;28;20219;-66
2022/04/06 05:33:35;;;;;;;14.60;11.57;;;8.60;99.90;;;;;;8459828;28;20233;-65
2022/04/06 05:37:40;;;;;;;15.07;12.30;;;8.60;99.90;;;;;;8437735;28;20298;-66
2022/04/06 05:41:41;;;;;;;14.17;11.30;;;8.70;99.90;;;;;;8435773;28;20225;-66
2022/04/06 05:45:42;;;;;;;13.30;10.43;;;8.80;99.90;;;;;;8435853;28;20227;-67
2022/04/06 05:49:43;;;;;;;18.10;11.07;;;8.80;99.90;;;;;;8434593;28;20223;-66
2022/04/06 05:53:44;;;;;;;13.73;10.00;;;8.90;99.90;;;;;;8435661;28;20214;-67
2022/04/06 05:57:45;;;;;;;12.73;10.40;;;9.00;99.90;;;;;;8434114;28;20203;-64
2022/04/06 06:01:47;;;;;;;12.63;10.20;;;9.20;99.90;;;;;;8435582;28;20273;-66
2022/04/06 06:05:47;;;;;;;10.23;8.10;;;9.30;99.90;;;;;;8451432;28;20264;-63
2022/04/06 06:09:48;;;;;;;11.23;9.80;;;9.40;99.90;;;;;;8433892;28;20310;-66
2022/04/06 06:13:49;;;;;;;11.90;10.17;;;9.50;99.90;;;;;;8435305;28;20697;-66
2022/04/06 06:17:51;;;;;;;11.70;9.77;;;9.50;99.90;;;;;;8452656;28;20269;-64
2022/04/06 06:21:52;;;;;;;11.30;9.50;;;9.60;99.90;;;;;;8435418;28;20216;-66
2022/04/06 06:25:53;;;;;;;12.00;10.73;;;9.70;99.90;;;;;;8434438;28;20203;-68
2022/04/06 06:29:54;;;;;;;11.10;9.97;;;9.90;99.90;;;;;;8451806;28;20257;-66
2022/04/06 06:33:58;;;;;;;9.53;8.63;;;10.20;99.90;;;;;;8459230;28;20287;-66
2022/04/06 06:37:59;;;;;;;10.00;8.77;;;10.20;99.90;;;;;;8432611;28;20314;-66
2022/04/06 06:42:01;;;;;;;9.40;8.40;;;10.30;99.90;;;;;;8434858;28;20205;-68
2022/04/06 06:46:02;;;;;;;11.13;9.63;;;10.40;99.90;;;;;;8433108;28;20211;-67
2022/04/06 06:50:03;;;;;;;10.17;9.13;;;10.40;99.90;;;;;;8451593;28;20254;-67
2022/04/06 06:54:04;;;;;;;11.73;10.23;;;10.40;99.90;;;;;;8432078;28;20204;-69
2022/04/06 06:58:05;;;;;;;13.37;10.83;;;10.40;99.90;;;;;;8452490;28;20196;-67
2022/04/06 07:02:06;;;;;;;13.37;10.43;;;10.30;99.90;;;;;;8432099;28;20224;-65
2022/04/06 07:06:07;;;;;;;10.97;9.83;;;10.30;99.90;;;;;;8452045;28;20521;-67
2022/04/06 07:10:08;;;;;;;10.60;8.90;;;10.20;99.90;;;;;;8450843;28;20569;-67
2022/04/06 07:14:09;;;;;;;10.67;8.13;;;10.20;99.90;;;;;;8452343;28;20208;-66
2022/04/06 07:18:11;;;;;;;10.37;7.00;;;10.00;99.90;;;;;;8432947;28;20199;-64
2022/04/06 07:22:12;;;;;;;8.23;5.90;;;10.00;99.90;;;;;;8432927;28;20211;-64
2022/04/06 07:26:16;;;;;;;9.67;6.17;;;10.00;99.90;;;;;;8450212;28;20579;-66
2022/04/06 07:30:17;;;;;;;8.17;5.60;;;10.10;99.90;;;;;;8433002;28;20227;-66
2022/04/06 07:34:18;;;;;;;9.03;5.70;;;10.30;99.90;;;;;;8440899;28;20286;-66
2022/04/06 07:38:19;;;;;;;6.80;5.00;;;10.50;99.90;;;;;;8431832;28;20207;-67
2022/04/06 07:42:20;;;;;;;5.20;4.07;;;10.60;99.90;;;;;;8432747;28;20749;-62
2022/04/06 07:46:21;;;;;;;5.77;4.73;;;10.50;99.90;;;;;;8432159;28;20208;-66
2022/04/06 07:50:23;;;;;;;4.93;3.77;;;10.50;99.90;;;;;;8450067;28;20242;-65
2022/04/06 07:54:24;;;;;;;6.90;4.10;;;10.60;99.90;;;;;;8432222;28;20231;-66
2022/04/06 07:58:25;;;;;;;5.07;4.43;;;10.90;99.90;;;;;;8431644;28;20463;-67
2022/04/06 08:02:25;;;;;;;5.67;4.83;;;11.20;99.90;;;;;;8431903;28;20211;-67
2022/04/06 08:06:27;;;;;;;6.87;4.63;;;11.50;99.90;;;;;;8442526;28;20242;-66
2022/04/06 08:10:30;;;;;;;5.27;4.33;;;11.60;99.90;;;;;;8432387;28;20253;-66
2022/04/06 08:14:30;;;;;;;4.83;4.33;;;11.90;99.90;;;;;;8430814;28;20200;-66
2022/04/06 08:18:31;;;;;;;6.40;5.70;;;12.40;99.90;;;;;;8449392;28;20202;-66
2022/04/06 08:22:32;;;;;;;8.00;7.00;;;12.70;99.90;;;;;;8449472;28;20207;-67
2022/04/06 08:26:34;;;;;;;9.57;7.77;;;12.90;99.90;;;;;;8433098;28;20203;-66
2022/04/06 08:30:39;;;;;;;8.67;7.77;;;13.10;99.90;;;;;;8432373;28;20215;-66
2022/04/06 08:34:40;;;;;;;11.57;9.63;;;13.50;99.90;;;;;;8458286;28;20399;-66
2022/04/06 08:38:41;;;;;;;10.67;8.73;;;13.80;1.00;;;;;;8436012;28;20294;-68
2022/04/06 08:42:42;;;;;;;10.47;9.37;;;13.90;99.90;;;;;;8443965;28;20250;-67
2022/04/06 08:46:45;;;;;;;11.17;9.63;;;14.00;99.90;;;;;;8441632;28;20436;-65
2022/04/06 08:50:47;;;;;;;9.93;8.80;;;14.30;99.90;;;;;;8442976;28;20279;-67
2022/04/06 08:54:48;;;;;;;9.70;8.20;;;14.50;99.90;;;;;;8436213;28;20203;-65
2022/04/06 08:58:49;;;;;;;9.10;8.10;;;14.60;99.90;;;;;;8454315;28;20266;-67
2022/04/06 09:02:50;;;;;;;8.97;7.77;;;14.80;1.00;;;;;;8434059;28;20215;-68
2022/04/06 09:06:51;;;;;;;8.07;7.07;;;14.80;1.00;;;;;;8461847;28;20203;-68
2022/04/06 09:10:52;;;;;;;9.20;6.93;;;14.80;99.90;;;;;;8437111;28;20238;-67
2022/04/06 09:15:11;;;;;;;7.33;6.60;;;14.90;99.90;;;;;;8454469;28;20239;-65
2022/04/06 09:19:14;;;;;;;5.77;5.17;;;14.70;99.90;;;;;;8436963;28;20207;-64
2022/04/06 09:23:14;;;;;;;6.67;5.77;;;14.70;1.00;;;;;;8435779;28;20207;-64
2022/04/06 09:27:16;;;;;;;6.83;4.87;;;14.50;1.00;;;;;;8453665;28;20242;-66
2022/04/06 09:31:18;;;;;;;6.07;4.57;;;14.80;1.00;;;;;;8435212;28;20265;-65
2022/04/06 09:35:25;;;;;;;5.50;4.40;;;15.10;99.90;;;;;;8442993;27;20307;-65
2022/04/06 09:39:46;;;;;;;4.30;3.77;;;15.30;99.90;;;;;;8435226;28;20242;-65
2022/04/06 09:43:50;;;;;;;6.13;4.10;;;15.60;1.00;;;;;;8452218;28;20207;-64
2022/04/06 09:47:53;;;;;;;5.20;3.47;;;15.30;99.90;;;;;;8433776;28;20203;-67
2022/04/06 09:51:54;;;;;;;4.93;4.43;;;15.20;99.90;;;;;;8453889;28;20335;-66
2022/04/06 09:55:55;;;;;;;5.67;4.20;;;15.40;1.00;;;;;;8435143;28;20203;-66
2022/04/06 09:59:57;;;;;;;8.43;3.90;;;15.20;99.90;;;;;;8432624;28;20212;-66
2022/04/06 10:04:03;;;;;;;6.53;3.90;;;15.30;99.90;;;;;;8430461;28;20214;-67
2022/04/06 10:08:06;;;;;;;4.83;3.97;;;15.50;99.90;;;;;;8453755;28;20211;-67
2022/04/06 10:12:09;;;;;;;4.63;3.37;;;15.80;1.00;;;;;;8453408;28;20219;-63
2022/04/06 10:16:12;;;;;;;4.00;3.53;;;15.80;1.00;;;;;;8434563;28;20208;-68
2022/04/06 10:20:17;;;;;;;6.33;3.63;;;15.50;99.90;;;;;;8434418;28;20587;-67
2022/04/06 10:24:30;;;;;;;4.63;3.53;;;15.30;1.00;;;;;;8438770;28;20203;-65
2022/04/06 10:28:34;;;;;;;3.67;2.80;;;14.90;99.90;;;;;;8426129;28;20298;-67
2022/04/06 10:32:37;;;;;;;5.87;3.20;;;15.40;1.00;;;;;;8437486;28;20211;-68
2022/04/06 10:36:41;;;;;;;5.37;3.30;;;15.50;1.00;;;;;;8458712;28;20200;-67
2022/04/06 10:40:45;;;;;;;3.87;3.00;;;15.60;99.90;;;;;;8445100;28;20208;-67
2022/04/06 10:44:45;;;;;;;5.27;3.20;;;15.60;99.90;;;;;;8450988;28;20208;-67
2022/04/06 10:49:06;;;;;;;4.60;2.87;;;15.20;99.90;;;;;;8434352;28;20306;-66
2022/04/06 10:53:19;;;;;;;4.23;3.10;;;14.30;99.90;;;;;;8427437;28;20578;-66
2022/04/06 10:57:21;;;;;;;4.60;2.97;;;13.80;66.10;;;;;;8447041;28;20204;-67
2022/04/06 11:01:29;;;;;;;5.93;3.40;;;13.40;1.00;;;;;;8431462;28;20310;-67
2022/04/06 11:05:46;;;;;;;5.40;2.57;;;13.20;99.90;;;;;;8449820;27;20199;-67
2022/04/06 11:14:07;;;;;;;4.53;2.97;;;13.40;99.90;;;;;;8445178;28;20280;-68
2022/04/06 11:18:49;;;;;;;4.67;3.20;;;13.50;99.90;;;;;;8432255;28;20218;-68
2022/04/06 11:22:55;;;;;;;5.90;3.00;;;13.50;99.90;;;;;;8433761;28;20219;-66
2022/04/06 11:26:56;;;;;;;4.87;3.40;;;13.50;99.90;;;;;;8429282;28;20261;-67
2022/04/06 11:31:01;;;;;;;6.57;3.27;;;13.60;99.90;;;;;;8442101;28;20249;-67
2022/04/06 11:35:10;;;;;;;4.67;3.57;;;13.60;1.00;;;;;;8459126;27;20306;-66
2022/04/06 11:39:13;;;;;;;5.87;3.57;;;13.60;99.90;;;;;;8431783;28;20296;-65
2022/04/06 11:43:14;;;;;;;5.37;3.50;;;13.70;22.00;;;;;;8451098;28;20208;-67
2022/04/06 11:47:15;;;;;;;6.30;4.17;;;13.80;99.90;;;;;;8450026;28;20270;-66
2022/04/06 11:51:17;;;;;;;4.87;3.77;;;13.70;99.90;;;;;;8432433;28;20226;-66
2022/04/06 11:55:19;;;;;;;5.87;3.63;;;13.60;53.40;;;;;;8432315;28;20230;-66
2022/04/06 11:59:22;;;;;;;4.40;3.40;;;13.50;70.90;;;;;;8448391;28;20655;-67
2022/04/06 12:03:30;;;;;;;4.87;3.37;;;13.50;28.60;;;;;;8435347;28;20502;-65
2022/04/06 12:07:32;;;;;;;5.07;3.03;;;13.90;99.90;;;;;;8434033;28;20207;-66
2022/04/06 12:11:36;;;;;;;5.73;3.47;;;14.50;99.90;;;;;;8430602;28;20231;-67
2022/04/06 12:15:40;;;;;;;4.40;2.83;;;15.10;10.20;;;;;;8447303;27;20219;-66
2022/04/06 12:19:40;;;;;;;4.07;2.87;;;15.40;1.00;;;;;;8431465;28;20218;-67
2022/04/06 12:23:47;;;;;;;3.60;2.93;;;15.60;99.90;;;;;;8375815;28;20776;-65
2022/04/06 12:27:47;;;;;;;4.07;2.47;;;15.30;99.90;;;;;;8379805;28;20220;-65
2022/04/06 12:31:49;;;;;;;3.47;2.40;;;15.10;1.00;;;;;;8378228;28;20238;-65
2022/04/06 12:35:50;;;;;;;3.93;3.03;;;15.00;1.00;;;;;;8374154;28;20216;-64
2022/04/06 12:39:54;;;;;;;4.80;3.30;;;15.00;99.90;;;;;;8368828;28;20301;-67
2022/04/06 12:43:55;;;;;;;5.93;4.20;;;15.30;1.00;;;;;;8353910;28;20261;-65
2022/04/06 12:48:15;;;;;;;4.10;3.63;;;15.50;1.00;;;;;;8363525;28;20213;-64
2022/04/06 12:52:26;;;;;;;4.63;4.13;;;15.70;1.00;;;;;;8371409;28;20221;-66
2022/04/06 12:56:27;;;;;;;5.80;4.50;;;16.00;1.00;;;;;;8380482;28;20201;-64
2022/04/06 13:00:30;;;;;;;4.27;3.87;;;16.40;99.90;;;;;;8355782;28;20256;-65
2022/04/06 13:04:35;;;;;;;4.10;3.70;;;16.20;99.90;;;;;;8398790;28;20205;-64
2022/04/06 13:08:36;;;;;;;4.10;3.70;;;16.30;99.90;;;;;;8379264;28;20204;-61
2022/04/06 13:12:41;;;;;;;3.67;3.37;;;16.40;99.90;;;;;;8382402;28;20250;-64
2022/04/06 13:16:42;;;;;;;3.90;3.37;;;16.50;99.90;;;;;;8374953;28;20282;-65
2022/04/06 13:20:43;;;;;;;4.00;3.33;;;16.40;99.90;;;;;;8381101;28;20655;-67
2022/04/06 13:24:45;;;;;;;5.03;3.63;;;16.40;99.90;;;;;;8386592;28;20274;-66
2022/04/06 13:28:47;;;;;;;6.27;3.20;;;16.00;1.00;;;;;;8376352;28;20240;-67
2022/04/06 13:32:50;;;;;;;4.10;3.70;;;16.00;99.90;;;;;;8385562;28;20245;-65
2022/04/06 13:36:51;;;;;;;3.80;3.33;;;16.20;99.90;;;;;;8392975;28;20649;-64
2022/04/06 13:40:52;;;;;;;3.87;3.47;;;16.20;99.90;;;;;;8386613;28;20224;-67
2022/04/06 13:44:53;;;;;;;3.30;2.87;;;16.00;99.90;;;;;;8384746;28;20213;-66
2022/04/06 13:48:57;;;;;;;3.00;2.70;;;16.00;99.90;;;;;;8384164;28;20235;-64
2022/04/06 13:52:58;;;;;;;2.63;2.43;;;15.90;99.90;;;;;;8380400;28;20220;-64
2022/04/06 13:57:00;;;;;;;2.47;2.27;;;16.00;99.90;;;;;;8384908;28;20209;-64
2022/04/06 14:01:01;;;;;;;3.33;2.73;;;16.20;99.90;;;;;;8356004;28;20271;-66
2022/04/06 14:05:03;;;;;;;2.57;2.37;;;16.50;50.10;;;;;;8394478;28;20220;-65
2022/04/06 14:09:06;;;;;;;3.23;2.23;;;16.50;1.00;;;;;;8379391;28;20224;-65
2022/04/06 14:13:07;;;;;;;3.33;2.10;;;16.60;1.00;;;;;;8386378;28;20207;-65
2022/04/06 14:17:12;;;;;;;2.40;2.20;;;16.60;99.90;;;;;;8384271;28;20213;-65
2022/04/06 14:21:12;;;;;;;4.57;2.20;;;16.60;4.70;;;;;;8380055;28;20274;-65
2022/04/06 14:25:16;;;;;;;2.77;2.40;;;16.60;95.00;;;;;;8400997;28;20234;-66
2022/04/06 14:29:17;;;;;;;3.00;2.50;;;16.60;61.50;;;;;;8393579;28;20264;-64
2022/04/06 14:33:20;;;;;;;2.00;1.80;;;16.30;99.90;;;;;;8386832;28;20212;-66
2022/04/06 14:37:21;;;;;;;2.20;2.00;;;16.40;99.90;;;;;;8389159;28;20209;-65
2022/04/06 14:41:22;;;;;;;2.57;2.17;;;16.60;99.90;;;;;;8384608;28;20212;-64
2022/04/06 14:45:23;;;;;;;3.33;2.30;;;16.60;99.90;;;;;;8401270;28;20216;-66
2022/04/06 14:49:24;;;;;;;3.50;2.20;;;16.50;30.00;;;;;;8380056;28;20226;-64
2022/04/06 14:53:25;;;;;;;5.63;2.30;;;16.70;22.60;;;;;;8382735;28;20209;-64
2022/04/06 14:57:26;;;;;;;3.10;2.03;;;16.50;1.00;;;;;;8380372;28;20208;-65
2022/04/06 15:01:26;;;;;;;3.07;2.50;;;16.50;27.00;;;;;;8382087;28;20224;-64
2022/04/06 15:05:27;;;;;;;4.87;3.03;;;16.50;1.00;;;;;;8392301;28;20204;-64
2022/04/06 15:09:29;;;;;;;3.20;2.43;;;16.40;1.00;;;;;;8352616;28;20216;-65
2022/04/06 15:13:30;;;;;;;3.53;2.43;;;16.30;4.50;;;;;;8367327;28;20260;-64
2022/04/06 15:17:31;;;;;;;3.17;2.53;;;16.30;1.00;;;;;;8383204;28;20208;-64
2022/04/06 15:21:32;;;;;;;5.63;2.77;;;16.40;1.00;;;;;;8378205;28;20319;-64
2022/04/06 15:25:34;;;;;;;2.27;2.03;;;16.50;12.00;;;;;;8383960;28;20204;-66
2022/04/06 15:29:36;;;;;;;3.00;2.50;;;16.60;1.00;;;;;;8383085;28;20231;-66
2022/04/06 15:33:37;;;;;;;6.83;2.90;;;16.60;1.00;;;;;;8383180;28;20216;-64
2022/04/06 15:37:38;;;;;;;3.37;2.67;;;16.60;1.00;;;;;;8382738;28;20228;-64
2022/04/06 15:41:39;;;;;;;5.90;2.50;;;16.60;1.00;;;;;;8383008;28;20270;-65
2022/04/06 15:45:40;;;;;;;5.53;2.47;;;16.60;26.20;;;;;;8381257;28;20308;-65
2022/04/06 15:49:40;;;;;;;2.80;2.47;;;16.50;1.00;;;;;;8383261;28;20208;-62
2022/04/06 15:53:42;;;;;;;3.23;2.60;;;16.50;42.10;;;;;;8384001;28;20216;-64
2022/04/06 15:57:43;;;;;;;4.00;2.60;;;16.40;74.50;;;;;;8381368;28;20205;-65
2022/04/06 16:01:43;;;;;;;4.27;2.37;;;16.30;1.00;;;;;;8382138;28;20258;-66
2022/04/06 16:05:45;;;;;;;2.50;1.80;;;16.10;1.00;;;;;;8381482;28;20209;-64
2022/04/06 16:09:46;;;;;;;2.30;2.10;;;16.00;1.00;;;;;;8382701;28;20204;-65
2022/04/06 16:13:47;;;;;;;2.53;1.50;;;16.10;1.00;;;;;;8381742;28;20292;-65
2022/04/06 16:17:49;;;;;;;2.70;1.93;;;16.10;1.00;;;;;;8381989;28;20257;-66
2022/04/06 16:21:50;;;;;;;2.80;2.40;;;16.00;1.00;;;;;;8372759;28;20228;-66
2022/04/06 16:25:51;;;;;;;2.40;2.20;;;15.90;1.00;;;;;;8366506;28;20325;-65
2022/04/06 16:29:51;;;;;;;3.20;1.80;;;15.60;1.00;;;;;;8380859;28;20208;-65
2022/04/06 16:33:53;;;;;;;4.00;2.07;;;15.40;99.90;;;;;;8382155;28;20216;-65
2022/04/06 16:37:53;;;;;;;3.77;2.23;;;15.30;99.90;;;;;;8379505;28;20296;-65
2022/04/06 16:41:54;;;;;;;3.00;2.40;;;15.10;99.90;;;;;;8379047;28;20228;-67
2022/04/06 16:45:56;;;;;;;4.30;2.73;;;14.90;99.90;;;;;;8380437;28;20283;-67
2022/04/06 16:54:19;;;;;;;4.53;2.10;;;14.60;1.00;;;;;;8379282;28;20219;-64
2022/04/06 16:58:20;;;;;;;3.50;2.17;;;14.40;1.00;;;;;;8387726;28;20220;-68
2022/04/06 17:02:25;;;;;;;2.67;1.80;;;14.20;23.20;;;;;;8401208;28;20221;-67
2022/04/06 17:06:26;;;;;;;2.10;1.87;;;14.10;1.00;;;;;;8387446;28;20255;-64
2022/04/06 17:10:27;;;;;;;2.23;1.67;;;14.00;85.40;;;;;;8386841;28;20212;-66
2022/04/06 17:14:28;;;;;;;3.27;1.90;;;13.90;78.50;;;;;;8387253;28;20236;-65
2022/04/06 17:18:29;;;;;;;3.90;2.10;;;13.80;71.80;;;;;;8377084;28;20205;-63
2022/04/06 17:22:30;;;;;;;1.90;1.50;;;13.70;85.20;;;;;;8376814;28;20305;-66
2022/04/06 17:26:32;;;;;;;2.37;2.07;;;13.60;1.00;;;;;;8383640;28;20243;-66
2022/04/06 17:30:34;;;;;;;3.30;2.07;;;13.50;56.20;;;;;;8387248;28;20207;-64
2022/04/06 17:34:35;;;;;;;2.90;1.90;;;13.30;99.90;;;;;;8386640;28;20228;-66
2022/04/06 17:38:35;;;;;;;2.87;1.80;;;13.20;99.90;;;;;;8386156;28;20201;-67
2022/04/06 17:42:40;;;;;;;3.60;2.17;;;13.00;99.90;;;;;;8385127;28;20217;-68
2022/04/06 17:46:41;;;;;;;3.33;2.00;;;12.90;99.90;;;;;;8385726;28;20275;-67
2022/04/06 17:50:42;;;;;;;3.07;1.87;;;12.70;99.90;;;;;;8381794;28;20220;-65
2022/04/06 17:54:43;;;;;;;3.87;2.23;;;12.60;1.00;;;;;;8378501;28;20204;-64
2022/04/06 17:58:44;;;;;;;3.70;2.30;;;12.50;1.00;;;;;;8384941;28;20207;-67
2022/04/06 18:02:45;;;;;;;4.57;2.87;;;12.40;1.00;;;;;;8383036;28;20217;-65
2022/04/06 18:06:46;;;;;;;4.17;2.37;;;12.30;1.00;;;;;;8384233;28;20205;-65
2022/04/06 18:15:06;;;;;;;2.33;2.03;;;12.10;94.50;;;;;;8385656;28;20204;-65
2022/04/06 18:19:07;;;;;;;4.53;2.50;;;12.00;99.90;;;;;;8383222;28;20244;-65
2022/04/06 18:23:07;;;;;;;4.00;2.60;;;11.90;99.90;;;;;;8384615;28;20250;-67
2022/04/06 18:27:08;;;;;;;3.77;2.57;;;11.70;99.90;;;;;;8384582;28;20205;-65
2022/04/06 18:31:09;;;;;;;4.60;2.47;;;11.60;99.90;;;;;;8384065;28;20247;-65
2022/04/06 18:35:10;;;;;;;3.57;2.10;;;11.40;1.00;;;;;;8383917;28;20207;-66
2022/04/06 18:39:11;;;;;;;4.10;2.53;;;11.30;84.10;;;;;;8380534;28;20235;-65
2022/04/06 18:43:12;;;;;;;3.10;2.37;;;11.20;99.90;;;;;;8385675;28;20211;-66
2022/04/06 18:47:13;;;;;;;3.50;2.50;;;11.10;99.90;;;;;;8381155;28;20284;-65
2022/04/06 18:51:14;;;;;;;4.70;2.57;;;11.10;99.90;;;;;;8384206;28;20211;-64
2022/04/06 18:55:15;;;;;;;3.23;2.20;;;11.10;1.00;;;;;;8379569;28;20213;-64
2022/04/06 18:59:16;;;;;;;2.70;2.33;;;11.00;99.90;;;;;;8374433;28;20302;-66
2022/04/06 19:03:18;;;;;;;2.83;2.10;;;10.90;78.90;;;;;;8381302;28;20204;-64
2022/04/06 19:07:19;;;;;;;4.07;2.50;;;10.70;54.60;;;;;;8383385;28;20199;-64
2022/04/06 19:11:20;;;;;;;4.67;3.00;;;10.70;1.00;;;;;;8383804;28;20577;-64
2022/04/06 19:15:24;;;;;;;3.77;2.50;;;10.60;99.90;;;;;;8384140;28;20313;-67
2022/04/06 19:19:25;;;;;;;3.97;2.70;;;10.50;1.00;;;;;;8381267;28;20212;-66
2022/04/06 19:23:25;;;;;;;3.87;2.97;;;10.40;1.00;;;;;;8382518;28;20212;-65
2022/04/06 19:27:27;;;;;;;3.17;2.60;;;10.30;1.00;;;;;;8380457;28;20204;-67
2022/04/06 19:31:28;;;;;;;4.23;3.13;;;10.20;1.00;;;;;;8383125;28;20202;-65
2022/04/06 19:35:28;;;;;;;5.17;2.90;;;10.30;99.90;;;;;;8383702;28;20209;-65
2022/04/06 19:39:31;;;;;;;3.63;2.57;;;10.30;99.90;;;;;;8381166;28;20206;-66
2022/04/06 19:43:32;;;;;;;4.17;2.40;;;10.40;1.00;;;;;;8383944;28;20610;-65
2022/04/06 19:47:34;;;;;;;3.47;2.47;;;10.40;99.90;;;;;;8371851;28;20267;-65
2022/04/06 19:51:35;;;;;;;4.13;2.63;;;10.40;99.90;;;;;;8383211;28;20209;-66
2022/04/06 19:55:37;;;;;;;2.93;2.40;;;10.40;1.00;;;;;;8378172;28;20627;-65
2022/04/06 19:59:37;;;;;;;3.43;2.60;;;10.40;1.00;;;;;;8377359;28;20213;-65
2022/04/06 20:03:39;;;;;;;4.07;2.97;;;10.30;59.00;;;;;;8392862;28;20302;-67
2022/04/06 20:07:40;;;;;;;4.33;2.80;;;10.30;99.90;;;;;;8380428;28;20404;-68
2022/04/06 20:11:41;;;;;;;5.97;3.47;;;10.30;99.90;;;;;;8382508;28;20222;-65
2022/04/06 20:15:42;;;;;;;4.77;3.30;;;10.30;99.90;;;;;;8382075;28;20269;-65
2022/04/06 20:19:44;;;;;;;4.57;3.03;;;10.30;99.90;;;;;;8382299;28;20266;-64
2022/04/06 20:23:45;;;;;;;6.17;3.10;;;10.30;28.60;;;;;;8377503;28;20228;-66
2022/04/06 20:27:46;;;;;;;4.87;2.80;;;10.20;1.00;;;;;;8380148;28;20244;-65
2022/04/06 20:31:48;;;;;;;3.63;2.67;;;10.10;99.90;;;;;;8382140;28;20225;-65
2022/04/06 20:35:49;;;;;;;3.80;2.73;;;10.00;99.90;;;;;;8380483;28;20219;-67
2022/04/06 20:39:50;;;;;;;5.27;3.53;;;9.80;46.50;;;;;;8379140;28;20213;-65
2022/04/06 20:43:51;;;;;;;5.43;3.73;;;9.70;99.90;;;;;;8377424;28;20211;-66
2022/04/06 20:47:54;;;;;;;5.10;3.50;;;9.40;1.00;;;;;;8380985;28;20212;-67
2022/04/06 20:51:54;;;;;;;4.37;3.30;;;9.20;1.00;;;;;;8400843;28;20287;-65
2022/04/06 20:55:57;;;;;;;4.63;3.33;;;9.00;1.00;;;;;;8373689;28;20244;-65
2022/04/06 20:59:58;;;;;;;6.13;3.23;;;8.90;1.00;;;;;;8372581;28;20201;-66
2022/04/06 21:03:59;;;;;;;5.27;2.97;;;8.80;99.90;;;;;;8388336;28;20213;-64
2022/04/06 21:07:59;;;;;;;5.63;3.20;;;8.80;99.90;;;;;;8372435;28;20204;-64
2022/04/06 21:12:00;;;;;;;5.87;3.20;;;8.80;99.90;;;;;;8379755;28;20201;-66
2022/04/06 21:16:06;;;;;;;4.10;3.03;;;8.60;1.00;;;;;;8381475;28;20433;-64
2022/04/06 21:20:08;;;;;;;4.03;3.23;;;8.50;1.00;;;;;;8380642;28;20224;-65